createdAt,value
2023-04-02T00:00:13.684Z,71.82
2023-04-02T00:01:13.652Z,71.93
2023-04-02T00:02:13.725Z,71.84
2023-04-02T00:03:13.657Z,71.84
2023-04-02T00:04:13.642Z,71.91
2023-04-02T00:05:13.606Z,71.90
2023-04-02T00:06:13.596Z,71.91
2023-04-02T00:07:13.809Z,71.97
2023-04-02T00:08:13.576Z,72.03
2023-04-02T00:09:13.574Z,71.91
2023-04-02T00:10:13.565Z,71.85
2023-04-02T00:11:13.545Z,71.98
2023-04-02T00:12:13.517Z,71.98
2023-04-02T00:13:13.515Z,72.05
2023-04-02T00:14:13.498Z,71.92
2023-04-02T00:15:13.493Z,71.88
2023-04-02T00:16:13.543Z,71.89
2023-04-02T00:17:13.511Z,72.02
2023-04-02T00:18:13.531Z,72.03
2023-04-02T00:19:13.446Z,72.06
2023-04-02T00:20:13.456Z,72.03
2023-04-02T00:21:13.417Z,71.96
2023-04-02T00:22:13.395Z,71.96
2023-04-02T00:23:13.411Z,71.95
2023-04-02T00:24:13.369Z,72.00
2023-04-02T00:25:13.418Z,72.00
2023-04-02T00:26:13.360Z,72.04
2023-04-02T00:27:13.338Z,71.92
2023-04-02T00:28:13.331Z,71.87
2023-04-02T00:29:13.337Z,71.84
2023-04-02T00:30:13.322Z,71.96
2023-04-02T00:31:13.318Z,72.05
2023-04-02T00:32:13.340Z,71.97
2023-04-02T00:33:13.305Z,71.91
2023-04-02T00:34:13.244Z,71.92
2023-04-02T00:35:13.237Z,72.00
2023-04-02T00:36:13.280Z,72.02
2023-04-02T00:37:13.206Z,71.95
2023-04-02T00:38:13.191Z,71.94
2023-04-02T00:39:13.181Z,72.04
2023-04-02T00:40:13.162Z,71.93
2023-04-02T00:41:13.155Z,71.87
2023-04-02T00:42:13.160Z,71.87
2023-04-02T00:43:13.137Z,71.81
2023-04-02T00:44:13.118Z,71.90
2023-04-02T00:45:13.126Z,72.02
2023-04-02T00:46:13.131Z,71.82
2023-04-02T00:47:13.073Z,71.81
2023-04-02T00:48:13.073Z,71.91
2023-04-02T00:49:13.051Z,71.70
2023-04-02T00:50:13.038Z,71.82
2023-04-02T00:51:13.026Z,72.03
2023-04-02T00:52:13.010Z,72.00
2023-04-02T00:53:13.007Z,71.82
2023-04-02T00:54:12.994Z,71.93
2023-04-02T00:55:12.985Z,71.86
2023-04-02T00:56:12.965Z,71.73
2023-04-02T00:57:12.983Z,71.70
2023-04-02T00:58:12.946Z,71.65
2023-04-02T00:59:12.925Z,71.80
2023-04-02T01:00:12.924Z,71.77
2023-04-02T01:01:12.953Z,71.79
2023-04-02T01:02:12.910Z,71.86
2023-04-02T01:03:13.032Z,71.89
2023-04-02T01:04:12.898Z,71.91
2023-04-02T01:05:12.851Z,71.75
2023-04-02T01:06:12.837Z,71.66
2023-04-02T01:07:12.828Z,71.73
2023-04-02T01:08:12.813Z,71.84
2023-04-02T01:09:12.809Z,71.86
2023-04-02T01:10:12.799Z,71.90
2023-04-02T01:11:12.789Z,71.91
2023-04-02T01:12:12.757Z,72.04
2023-04-02T01:13:12.756Z,71.90
2023-04-02T01:14:12.756Z,71.99
2023-04-02T01:15:12.718Z,71.98
2023-04-02T01:16:12.765Z,71.98
2023-04-02T01:17:12.694Z,71.94
2023-04-02T01:18:12.682Z,72.00
2023-04-02T01:19:12.679Z,71.93
2023-04-02T01:20:12.646Z,72.11
2023-04-02T01:21:12.647Z,72.12
2023-04-02T01:22:12.638Z,72.13
2023-04-02T01:23:12.635Z,72.09
2023-04-02T01:24:12.628Z,72.19
2023-04-02T01:25:12.598Z,72.16
2023-04-02T01:26:12.596Z,72.08
2023-04-02T01:27:12.562Z,72.06
2023-04-02T01:28:12.596Z,72.14
2023-04-02T01:29:12.550Z,72.16
2023-04-02T01:30:12.533Z,72.34
2023-04-02T01:31:12.616Z,72.25
2023-04-02T01:32:12.498Z,72.24
2023-04-02T01:33:12.496Z,72.28
2023-04-02T01:34:12.503Z,72.30
2023-04-02T01:35:12.468Z,72.28
2023-04-02T01:36:12.480Z,72.30
2023-04-02T01:37:12.440Z,72.15
2023-04-02T01:38:12.417Z,72.11
2023-04-02T01:39:12.430Z,72.13
2023-04-02T01:40:12.424Z,72.21
2023-04-02T01:41:12.391Z,72.23
2023-04-02T01:42:12.379Z,72.29
2023-04-02T01:43:12.368Z,72.29
2023-04-02T01:44:12.367Z,72.28
2023-04-02T01:45:12.387Z,72.27
2023-04-02T01:46:12.394Z,72.28
2023-04-02T01:47:12.307Z,72.35
2023-04-02T01:48:12.311Z,72.34
2023-04-02T01:49:12.276Z,72.33
2023-04-02T01:50:12.289Z,72.33
2023-04-02T01:51:12.254Z,72.36
2023-04-02T01:52:12.255Z,72.34
2023-04-02T01:53:12.223Z,72.29
2023-04-02T01:54:12.232Z,72.29
2023-04-02T01:55:12.227Z,72.32
2023-04-02T01:56:12.201Z,72.40
2023-04-02T01:57:12.179Z,72.43
2023-04-02T01:58:12.195Z,72.47
2023-04-02T01:59:12.194Z,72.46
2023-04-02T02:00:12.144Z,72.36
2023-04-02T02:01:12.195Z,72.44
2023-04-02T02:02:12.163Z,72.46
2023-04-02T02:03:12.184Z,72.44
2023-04-02T02:04:12.098Z,72.55
2023-04-02T02:05:12.092Z,72.61
2023-04-02T02:06:12.062Z,72.59
2023-04-02T02:07:12.044Z,72.66
2023-04-02T02:08:12.039Z,72.57
2023-04-02T02:09:12.024Z,72.42
2023-04-02T02:10:12.014Z,72.48
2023-04-02T02:11:12.002Z,72.46
2023-04-02T02:12:11.985Z,72.28
2023-04-02T02:13:11.988Z,72.39
2023-04-02T02:14:12.008Z,72.41
2023-04-02T02:15:11.971Z,72.41
2023-04-02T02:16:12.001Z,72.45
2023-04-02T02:17:11.932Z,72.47
2023-04-02T02:18:11.913Z,72.49
2023-04-02T02:19:11.902Z,72.38
2023-04-02T02:20:11.917Z,72.28
2023-04-02T02:21:11.902Z,72.28
2023-04-02T02:22:11.866Z,72.27
2023-04-02T02:23:11.853Z,72.26
2023-04-02T02:24:11.834Z,72.25
2023-04-02T02:25:11.817Z,72.15
2023-04-02T02:26:11.862Z,72.17
2023-04-02T02:27:11.815Z,72.19
2023-04-02T02:28:11.794Z,72.15
2023-04-02T02:29:11.799Z,72.25
2023-04-02T02:30:11.778Z,72.29
2023-04-02T02:31:11.752Z,72.35
2023-04-02T02:32:11.859Z,72.18
2023-04-02T02:33:11.714Z,72.19
2023-04-02T02:34:11.710Z,72.23
2023-04-02T02:35:11.726Z,72.33
2023-04-02T02:36:11.732Z,72.33
2023-04-02T02:37:11.667Z,72.28
2023-04-02T02:38:11.673Z,72.31
2023-04-02T02:39:11.640Z,72.29
2023-04-02T02:40:11.645Z,72.17
2023-04-02T02:41:11.678Z,72.20
2023-04-02T02:42:11.636Z,72.17
2023-04-02T02:43:11.601Z,72.15
2023-04-02T02:44:11.586Z,72.10
2023-04-02T02:45:11.567Z,72.05
2023-04-02T02:46:11.622Z,72.18
2023-04-02T02:47:11.549Z,72.09
2023-04-02T02:48:11.536Z,72.20
2023-04-02T02:49:11.514Z,72.12
2023-04-02T02:50:11.513Z,72.16
2023-04-02T02:51:14.530Z,72.10
2023-04-02T02:52:11.498Z,72.23
2023-04-02T02:53:11.469Z,72.29
2023-04-02T02:54:11.466Z,72.23
2023-04-02T02:55:11.441Z,72.21
2023-04-02T02:56:11.426Z,72.29
2023-04-02T02:57:11.462Z,72.16
2023-04-02T02:58:11.408Z,72.21
2023-04-02T02:59:11.401Z,72.14
2023-04-02T03:00:11.384Z,72.21
2023-04-02T03:01:11.373Z,72.16
2023-04-02T03:02:11.394Z,72.19
2023-04-02T03:03:11.404Z,72.11
2023-04-02T03:04:11.403Z,72.10
2023-04-02T03:05:11.303Z,72.22
2023-04-02T03:06:11.321Z,72.29
2023-04-02T03:07:11.290Z,72.15
2023-04-02T03:08:11.270Z,72.10
2023-04-02T03:09:11.273Z,72.08
2023-04-02T03:10:11.244Z,72.19
2023-04-02T03:11:11.242Z,72.15
2023-04-02T03:12:11.238Z,72.14
2023-04-02T03:13:11.214Z,72.26
2023-04-02T03:14:11.195Z,72.26
2023-04-02T03:15:11.180Z,72.32
2023-04-02T03:16:11.235Z,72.29
2023-04-02T03:17:11.158Z,72.34
2023-04-02T03:18:11.144Z,72.33
2023-04-02T03:19:11.143Z,72.32
2023-04-02T03:20:11.117Z,72.29
2023-04-02T03:21:11.120Z,72.36
2023-04-02T03:22:11.110Z,72.36
2023-04-02T03:23:11.079Z,72.36
2023-04-02T03:24:11.073Z,72.28
2023-04-02T03:25:11.079Z,72.25
2023-04-02T03:26:18.168Z,72.37
2023-04-02T03:27:11.030Z,72.43
2023-04-02T03:28:11.073Z,72.40
2023-04-02T03:29:11.037Z,72.33
2023-04-02T03:30:10.995Z,72.46
2023-04-02T03:31:10.998Z,72.50
2023-04-02T03:32:10.992Z,72.47
2023-04-02T03:33:10.974Z,72.47
2023-04-02T03:34:10.956Z,72.39
2023-04-02T03:35:10.932Z,72.36
2023-04-02T03:36:10.958Z,72.41
2023-04-02T03:37:10.906Z,72.33
2023-04-02T03:38:10.934Z,72.20
2023-04-02T03:39:10.890Z,72.17
2023-04-02T03:40:10.867Z,72.14
2023-04-02T03:41:10.860Z,72.24
2023-04-02T03:42:10.866Z,72.30
2023-04-02T03:43:10.837Z,72.21
2023-04-02T03:44:10.840Z,72.18
2023-04-02T03:45:10.802Z,72.19
2023-04-02T03:46:10.808Z,72.18
2023-04-02T03:47:10.773Z,72.22
2023-04-02T03:48:10.775Z,72.19
2023-04-02T03:49:10.754Z,72.18
2023-04-02T03:50:10.758Z,72.21
2023-04-02T03:51:10.728Z,72.24
2023-04-02T03:52:10.731Z,72.24
2023-04-02T03:53:10.765Z,72.17
2023-04-02T03:54:10.691Z,72.25
2023-04-02T03:55:10.673Z,72.31
2023-04-02T03:56:10.671Z,72.23
2023-04-02T03:57:10.687Z,72.18
2023-04-02T03:58:10.684Z,72.09
2023-04-02T03:59:10.625Z,72.02
2023-04-02T04:00:10.673Z,72.11
2023-04-02T04:01:10.619Z,72.06
2023-04-02T04:02:10.660Z,72.00
2023-04-02T04:03:11.401Z,72.04
2023-04-02T04:04:10.673Z,72.03
2023-04-02T04:05:10.550Z,72.22
2023-04-02T04:06:10.538Z,72.25
2023-04-02T04:07:10.523Z,72.18
2023-04-02T04:08:10.528Z,72.25
2023-04-02T04:09:10.504Z,72.27
2023-04-02T04:10:10.495Z,72.20
2023-04-02T04:11:10.560Z,72.25
2023-04-02T04:12:10.454Z,72.21
2023-04-02T04:13:10.454Z,72.20
2023-04-02T04:14:10.466Z,72.01
2023-04-02T04:15:10.431Z,72.14
2023-04-02T04:16:10.497Z,72.22
2023-04-02T04:17:10.385Z,72.32
2023-04-02T04:18:10.404Z,72.30
2023-04-02T04:19:10.394Z,72.42
2023-04-02T04:20:10.353Z,72.39
2023-04-02T04:21:10.344Z,72.35
2023-04-02T04:22:10.342Z,72.39
2023-04-02T04:23:10.331Z,72.39
2023-04-02T04:24:10.308Z,72.32
2023-04-02T04:25:10.301Z,72.29
2023-04-02T04:26:10.272Z,72.39
2023-04-02T04:27:10.258Z,72.30
2023-04-02T04:28:10.257Z,72.21
2023-04-02T04:29:10.293Z,72.28
2023-04-02T04:30:10.236Z,72.33
2023-04-02T04:31:10.219Z,72.41
2023-04-02T04:32:10.265Z,72.41
2023-04-02T04:33:10.222Z,72.45
2023-04-02T04:34:10.186Z,72.46
2023-04-02T04:35:10.150Z,72.49
2023-04-02T04:36:10.166Z,72.51
2023-04-02T04:37:10.123Z,72.54
2023-04-02T04:38:10.115Z,72.45
2023-04-02T04:39:10.137Z,72.42
2023-04-02T04:40:10.088Z,72.38
2023-04-02T04:41:10.087Z,72.51
2023-04-02T04:42:10.099Z,72.46
2023-04-02T04:43:10.049Z,72.53
2023-04-02T04:44:10.062Z,72.61
2023-04-02T04:45:10.041Z,72.59
2023-04-02T04:46:10.093Z,72.48
2023-04-02T04:47:10.013Z,72.64
2023-04-02T04:48:10.004Z,72.68
2023-04-02T04:49:10.024Z,72.68
2023-04-02T04:50:09.960Z,72.61
2023-04-02T04:51:09.963Z,72.63
2023-04-02T04:52:09.978Z,72.65
2023-04-02T04:53:09.925Z,72.62
2023-04-02T04:54:09.946Z,72.76
2023-04-02T04:55:09.904Z,72.77
2023-04-02T04:56:18.928Z,72.74
2023-04-02T04:57:09.976Z,72.72
2023-04-02T04:58:09.860Z,72.69
2023-04-02T04:59:09.860Z,72.67
2023-04-02T05:00:09.833Z,72.68
2023-04-02T05:01:09.855Z,72.64
2023-04-02T05:02:09.810Z,72.77
2023-04-02T05:03:09.794Z,72.76
2023-04-02T05:04:09.841Z,72.78
2023-04-02T05:05:09.761Z,72.68
2023-04-02T05:06:09.761Z,72.82
2023-04-02T05:07:09.753Z,72.87
2023-04-02T05:08:09.781Z,72.76
2023-04-02T05:09:09.706Z,72.86
2023-04-02T05:10:09.707Z,72.93
2023-04-02T05:11:09.713Z,72.95
2023-04-02T05:12:09.679Z,72.89
2023-04-02T05:13:09.659Z,72.89
2023-04-02T05:14:09.653Z,72.85
2023-04-02T05:15:09.635Z,72.62
2023-04-02T05:16:09.676Z,72.73
2023-04-02T05:17:09.639Z,72.97
2023-04-02T05:18:09.645Z,73.09
2023-04-02T05:19:09.582Z,72.98
2023-04-02T05:20:09.593Z,72.87
2023-04-02T05:21:09.575Z,72.91
2023-04-02T05:22:09.561Z,73.04
2023-04-02T05:23:09.547Z,72.97
2023-04-02T05:24:09.523Z,72.90
2023-04-02T05:25:09.511Z,72.90
2023-04-02T05:26:09.513Z,72.82
2023-04-02T05:27:09.477Z,72.88
2023-04-02T05:28:09.478Z,72.92
2023-04-02T05:29:09.449Z,72.89
2023-04-02T05:30:09.457Z,72.78
2023-04-02T05:31:09.440Z,72.74
2023-04-02T05:32:09.429Z,72.86
2023-04-02T05:33:09.464Z,72.78
2023-04-02T05:34:09.385Z,72.75
2023-04-02T05:35:09.395Z,72.86
2023-04-02T05:36:09.551Z,72.77
2023-04-02T05:37:09.367Z,72.75
2023-04-02T05:38:09.338Z,72.80
2023-04-02T05:39:09.331Z,72.83
2023-04-02T05:40:09.328Z,72.80
2023-04-02T05:41:09.325Z,72.79
2023-04-02T05:42:09.315Z,72.81
2023-04-02T05:43:09.317Z,72.93
2023-04-02T05:44:09.286Z,72.79
2023-04-02T05:45:09.266Z,72.72
2023-04-02T05:46:09.278Z,72.82
2023-04-02T05:47:09.256Z,72.92
2023-04-02T05:48:09.213Z,72.77
2023-04-02T05:49:09.195Z,72.90
2023-04-02T05:50:09.185Z,72.92
2023-04-02T05:51:09.195Z,72.92
2023-04-02T05:52:09.161Z,72.88
2023-04-02T05:53:09.157Z,72.92
2023-04-02T05:54:09.137Z,72.96
2023-04-02T05:55:09.144Z,72.96
2023-04-02T05:56:09.120Z,72.80
2023-04-02T05:57:09.188Z,72.80
2023-04-02T05:58:33.844Z,72.99
2023-04-02T05:59:09.101Z,73.01
2023-04-02T06:00:09.075Z,73.05
2023-04-02T06:01:09.052Z,72.97
2023-04-02T06:02:09.085Z,72.93
2023-04-02T06:03:09.183Z,73.04
2023-04-02T06:04:09.101Z,72.96
2023-04-02T06:05:08.990Z,72.98
2023-04-02T06:06:08.992Z,72.93
2023-04-02T06:07:08.973Z,72.90
2023-04-02T06:08:08.952Z,72.91
2023-04-02T06:09:08.956Z,73.10
2023-04-02T06:10:08.933Z,73.06
2023-04-02T06:11:08.921Z,72.91
2023-04-02T06:12:08.944Z,72.91
2023-04-02T06:13:08.915Z,72.99
2023-04-02T06:14:08.867Z,72.93
2023-04-02T06:15:08.874Z,72.94
2023-04-02T06:16:08.862Z,72.93
2023-04-02T06:17:08.838Z,72.88
2023-04-02T06:18:08.890Z,72.87
2023-04-02T06:19:08.816Z,72.85
2023-04-02T06:20:08.803Z,73.06
2023-04-02T06:21:08.797Z,73.04
2023-04-02T06:22:08.795Z,73.02
2023-04-02T06:23:08.774Z,73.02
2023-04-02T06:24:08.759Z,73.02
2023-04-02T06:25:08.747Z,72.98
2023-04-02T06:26:08.732Z,73.02
2023-04-02T06:27:08.734Z,72.98
2023-04-02T06:28:08.692Z,72.96
2023-04-02T06:29:08.683Z,73.00
2023-04-02T06:30:08.685Z,73.18
2023-04-02T06:31:08.732Z,73.08
2023-04-02T06:32:08.673Z,73.02
2023-04-02T06:33:08.685Z,72.97
2023-04-02T06:34:08.637Z,72.94
2023-04-02T06:35:08.613Z,73.10
2023-04-02T06:36:08.615Z,72.97
2023-04-02T06:37:08.598Z,72.91
2023-04-02T06:38:08.578Z,72.94
2023-04-02T06:39:08.555Z,72.90
2023-04-02T06:40:08.543Z,72.88
2023-04-02T06:41:08.553Z,72.86
2023-04-02T06:42:08.532Z,72.85
2023-04-02T06:43:08.522Z,72.95
2023-04-02T06:44:08.495Z,72.94
2023-04-02T06:45:08.495Z,72.98
2023-04-02T06:46:08.581Z,72.96
2023-04-02T06:47:08.480Z,72.93
2023-04-02T06:48:08.452Z,72.98
2023-04-02T06:49:08.429Z,72.99
2023-04-02T06:50:08.423Z,72.98
2023-04-02T06:51:08.407Z,72.99
2023-04-02T06:52:08.421Z,72.83
2023-04-02T06:53:08.378Z,72.84
2023-04-02T06:54:08.363Z,72.84
2023-04-02T06:55:08.942Z,72.99
2023-04-02T06:56:08.369Z,72.95
2023-04-02T06:57:08.403Z,72.87
2023-04-02T06:58:08.341Z,72.89
2023-04-02T06:59:08.305Z,72.90
2023-04-02T07:00:08.282Z,72.96
2023-04-02T07:01:08.343Z,72.97
2023-04-02T07:02:08.268Z,72.92
2023-04-02T07:03:08.297Z,72.86
2023-04-02T07:04:08.250Z,72.87
2023-04-02T07:05:08.391Z,72.77
2023-04-02T07:06:08.214Z,72.88
2023-04-02T07:07:08.193Z,72.92
2023-04-02T07:08:08.203Z,72.98
2023-04-02T07:09:08.167Z,73.02
2023-04-02T07:10:08.158Z,73.05
2023-04-02T07:11:08.169Z,73.07
2023-04-02T07:12:08.142Z,73.01
2023-04-02T07:13:08.133Z,73.06
2023-04-02T07:14:08.108Z,73.08
2023-04-02T07:15:08.104Z,73.04
2023-04-02T07:16:08.094Z,73.08
2023-04-02T07:17:08.083Z,72.97
2023-04-02T07:18:08.090Z,72.85
2023-04-02T07:19:08.050Z,72.89
2023-04-02T07:20:08.022Z,73.00
2023-04-02T07:21:08.040Z,73.00
2023-04-02T07:22:08.000Z,72.94
2023-04-02T07:23:08.008Z,73.06
2023-04-02T07:24:07.981Z,73.07
2023-04-02T07:25:07.979Z,73.06
2023-04-02T07:26:07.963Z,73.04
2023-04-02T07:27:07.953Z,73.07
2023-04-02T07:28:07.940Z,73.05
2023-04-02T07:29:07.935Z,72.97
2023-04-02T07:30:07.897Z,73.02
2023-04-02T07:31:07.933Z,72.95
2023-04-02T07:32:07.885Z,73.05
2023-04-02T07:33:07.920Z,73.02
2023-04-02T07:34:07.861Z,72.99
2023-04-02T07:35:07.854Z,72.94
2023-04-02T07:36:07.880Z,72.93
2023-04-02T07:37:07.817Z,72.99
2023-04-02T07:38:07.815Z,73.00
2023-04-02T07:39:07.795Z,72.85
2023-04-02T07:40:07.774Z,72.78
2023-04-02T07:41:07.767Z,72.66
2023-04-02T07:42:07.751Z,72.90
2023-04-02T07:43:07.730Z,73.02
2023-04-02T07:44:07.739Z,73.03
2023-04-02T07:45:07.712Z,73.04
2023-04-02T07:46:07.694Z,73.01
2023-04-02T07:47:07.746Z,73.04
2023-04-02T07:48:07.770Z,73.11
2023-04-02T07:49:07.661Z,72.97
2023-04-02T07:50:07.642Z,72.88
2023-04-02T07:51:07.632Z,72.90
2023-04-02T07:52:07.638Z,72.90
2023-04-02T07:53:07.607Z,72.97
2023-04-02T07:54:07.605Z,72.66
2023-04-02T07:55:07.592Z,72.50
2023-04-02T07:56:07.576Z,72.39
2023-04-02T07:57:07.569Z,72.37
2023-04-02T07:58:07.555Z,72.35
2023-04-02T07:59:07.539Z,72.38
2023-04-02T08:00:07.534Z,72.24
2023-04-02T08:01:07.514Z,71.99
2023-04-02T08:02:07.543Z,72.02
2023-04-02T08:03:07.585Z,72.29
2023-04-02T08:04:07.524Z,72.18
2023-04-02T08:05:07.500Z,72.14
2023-04-02T08:06:08.205Z,72.16
2023-04-02T08:07:07.452Z,72.25
2023-04-02T08:08:07.412Z,72.34
2023-04-02T08:09:07.434Z,72.26
2023-04-02T08:10:07.789Z,72.33
2023-04-02T08:11:07.409Z,72.34
2023-04-02T08:12:07.368Z,72.13
2023-04-02T08:13:07.396Z,72.09
2023-04-02T08:14:07.342Z,71.86
2023-04-02T08:15:07.350Z,71.94
2023-04-02T08:16:07.355Z,72.08
2023-04-02T08:17:07.314Z,72.02
2023-04-02T08:18:07.333Z,71.96
2023-04-02T08:19:08.878Z,72.14
2023-04-02T08:20:07.289Z,71.96
2023-04-02T08:21:07.257Z,71.86
2023-04-02T08:22:07.252Z,71.80
2023-04-02T08:23:07.235Z,71.82
2023-04-02T08:24:07.222Z,71.84
2023-04-02T08:25:07.203Z,72.01
2023-04-02T08:26:07.189Z,72.01
2023-04-02T08:27:07.178Z,72.09
2023-04-02T08:28:07.164Z,71.94
2023-04-02T08:29:07.188Z,71.75
2023-04-02T08:30:07.155Z,71.61
2023-04-02T08:31:07.154Z,71.60
2023-04-02T08:32:07.124Z,71.59
2023-04-02T08:33:07.164Z,71.55
2023-04-02T08:34:07.080Z,71.55
2023-04-02T08:35:07.126Z,71.51
2023-04-02T08:36:07.106Z,71.63
2023-04-02T08:37:07.050Z,71.57
2023-04-02T08:38:07.040Z,71.43
2023-04-02T08:39:07.031Z,71.38
2023-04-02T08:40:07.029Z,71.42
2023-04-02T08:41:07.005Z,71.28
2023-04-02T08:42:07.054Z,71.16
2023-04-02T08:43:06.973Z,71.04
2023-04-02T08:44:06.957Z,70.82
2023-04-02T08:45:22.981Z,70.85
2023-04-02T08:46:06.957Z,70.83
2023-04-02T08:47:06.938Z,70.89
2023-04-02T08:48:06.963Z,70.82
2023-04-02T08:49:06.898Z,70.80
2023-04-02T08:50:06.898Z,70.82
2023-04-02T08:51:06.866Z,70.86
2023-04-02T08:52:06.850Z,70.85
2023-04-02T08:53:06.854Z,70.83
2023-04-02T08:54:06.892Z,70.86
2023-04-02T08:55:06.830Z,71.00
2023-04-02T08:56:06.803Z,71.00
2023-04-02T08:57:06.855Z,71.03
2023-04-02T08:58:06.776Z,71.01
2023-04-02T08:59:06.797Z,70.99
2023-04-02T09:00:06.757Z,70.73
2023-04-02T09:01:06.737Z,70.79
2023-04-02T09:02:06.719Z,70.75
2023-04-02T09:03:06.780Z,70.81
2023-04-02T09:04:06.701Z,70.94
2023-04-02T09:05:06.797Z,70.95
2023-04-02T09:06:06.675Z,70.98
2023-04-02T09:07:06.675Z,70.86
2023-04-02T09:08:06.650Z,70.72
2023-04-02T09:09:06.639Z,70.80
2023-04-02T09:10:06.640Z,70.74
2023-04-02T09:11:06.617Z,70.74
2023-04-02T09:12:06.599Z,70.76
2023-04-02T09:13:06.598Z,70.74
2023-04-02T09:14:06.597Z,70.67
2023-04-02T09:15:06.572Z,70.63
2023-04-02T09:16:06.632Z,70.68
2023-04-02T09:17:06.539Z,70.65
2023-04-02T09:18:06.548Z,70.54
2023-04-02T09:19:06.514Z,70.37
2023-04-02T09:20:06.505Z,70.13
2023-04-02T09:21:06.484Z,70.19
2023-04-02T09:22:06.499Z,70.18
2023-04-02T09:23:06.456Z,70.26
2023-04-02T09:24:06.443Z,70.00
2023-04-02T09:25:06.462Z,69.94
2023-04-02T09:26:06.432Z,69.84
2023-04-02T09:27:06.436Z,69.95
2023-04-02T09:28:06.403Z,69.96
2023-04-02T09:29:06.384Z,69.98
2023-04-02T09:30:06.411Z,69.98
2023-04-02T09:31:07.347Z,69.81
2023-04-02T09:32:06.371Z,69.80
2023-04-02T09:33:06.510Z,69.86
2023-04-02T09:34:06.386Z,69.75
2023-04-02T09:35:14.980Z,69.70
2023-04-02T09:36:06.351Z,69.78
2023-04-02T09:37:06.311Z,69.91
2023-04-02T09:38:06.271Z,69.92
2023-04-02T09:39:06.341Z,70.01
2023-04-02T09:40:06.247Z,70.08
2023-04-02T09:41:06.252Z,70.09
2023-04-02T09:42:06.224Z,70.10
2023-04-02T09:43:06.214Z,70.02
2023-04-02T09:44:06.198Z,70.09
2023-04-02T09:45:06.186Z,69.98
2023-04-02T09:46:06.177Z,69.78
2023-04-02T09:47:06.254Z,69.88
2023-04-02T09:48:06.184Z,69.61
2023-04-02T09:49:06.146Z,69.35
2023-04-02T09:50:06.125Z,69.48
2023-04-02T09:51:06.118Z,69.56
2023-04-02T09:52:06.094Z,69.70
2023-04-02T09:53:06.081Z,69.62
2023-04-02T09:54:06.094Z,69.82
2023-04-02T09:55:06.059Z,69.72
2023-04-02T09:56:06.070Z,69.32
2023-04-02T09:57:06.066Z,69.06
2023-04-02T09:58:06.030Z,68.72
2023-04-02T09:59:06.044Z,68.40
2023-04-02T10:00:06.008Z,68.32
2023-04-02T10:01:06.016Z,68.44
2023-04-02T10:02:05.970Z,68.15
2023-04-02T10:03:05.959Z,68.31
2023-04-02T10:04:06.011Z,68.43
2023-04-02T10:05:05.917Z,68.22
2023-04-02T10:06:05.950Z,68.05
2023-04-02T10:07:05.930Z,68.19
2023-04-02T10:08:05.879Z,68.26
2023-04-02T10:09:05.870Z,68.24
2023-04-02T10:10:05.874Z,68.03
2023-04-02T10:11:05.846Z,67.94
2023-04-02T10:12:06.157Z,68.09
2023-04-02T10:13:05.833Z,68.01
2023-04-02T10:14:05.822Z,68.09
2023-04-02T10:15:05.791Z,68.05
2023-04-02T10:16:05.859Z,67.95
2023-04-02T10:17:05.826Z,68.00
2023-04-02T10:18:05.841Z,67.97
2023-04-02T10:19:05.743Z,67.94
2023-04-02T10:20:05.741Z,67.82
2023-04-02T10:21:05.731Z,67.99
2023-04-02T10:22:05.755Z,68.00
2023-04-02T10:23:06.571Z,67.96
2023-04-02T10:24:05.686Z,68.09
2023-04-02T10:25:05.659Z,68.04
2023-04-02T10:26:05.662Z,68.05
2023-04-02T10:27:05.657Z,68.12
2023-04-02T10:28:05.628Z,68.07
2023-04-02T10:29:06.973Z,68.13
2023-04-02T10:30:05.629Z,68.07
2023-04-02T10:31:05.603Z,68.15
2023-04-02T10:32:05.625Z,68.24
2023-04-02T10:33:05.678Z,68.43
2023-04-02T10:34:05.561Z,68.27
2023-04-02T10:35:05.559Z,68.10
2023-04-02T10:36:05.580Z,68.29
2023-04-02T10:37:05.558Z,68.31
2023-04-02T10:38:05.516Z,68.32
2023-04-02T10:39:05.510Z,68.10
2023-04-02T10:40:05.484Z,68.01
2023-04-02T10:41:05.461Z,68.23
2023-04-02T10:42:05.454Z,67.88
2023-04-02T10:43:05.454Z,67.65
2023-04-02T10:44:13.150Z,67.33
2023-04-02T10:45:05.424Z,67.12
2023-04-02T10:46:05.452Z,66.89
2023-04-02T10:47:05.439Z,67.03
2023-04-02T10:48:05.422Z,67.21
2023-04-02T10:49:05.407Z,67.26
2023-04-02T10:50:05.367Z,67.30
2023-04-02T10:51:05.385Z,67.13
2023-04-02T10:52:05.345Z,67.20
2023-04-02T10:53:05.325Z,66.89
2023-04-02T10:54:05.311Z,66.88
2023-04-02T10:55:05.331Z,66.97
2023-04-02T10:56:05.287Z,66.57
2023-04-02T10:57:05.294Z,66.46
2023-04-02T10:58:05.274Z,66.40
2023-04-02T10:59:05.244Z,66.10
2023-04-02T11:00:05.252Z,65.19
2023-04-02T11:01:05.233Z,64.96
2023-04-02T11:02:05.207Z,64.82
2023-04-02T11:03:05.252Z,64.52
2023-04-02T11:04:05.187Z,64.75
2023-04-02T11:05:05.184Z,64.61
2023-04-02T11:06:05.160Z,64.42
2023-04-02T11:07:13.665Z,64.19
2023-04-02T11:08:05.130Z,63.91
2023-04-02T11:09:05.138Z,64.04
2023-04-02T11:10:05.116Z,64.02
2023-04-02T11:11:05.097Z,64.31
2023-04-02T11:12:05.175Z,64.29
2023-04-02T11:13:05.080Z,63.99
2023-04-02T11:14:05.080Z,63.99
2023-04-02T11:15:05.048Z,63.85
2023-04-02T11:16:05.082Z,63.81
2023-04-02T11:17:05.036Z,63.70
2023-04-02T11:18:05.028Z,63.64
2023-04-02T11:19:05.012Z,63.75
2023-04-02T11:20:04.999Z,63.79
2023-04-02T11:21:04.991Z,63.94
2023-04-02T11:22:06.682Z,64.09
2023-04-02T11:23:04.957Z,64.18
2023-04-02T11:24:04.955Z,64.51
2023-04-02T11:25:04.930Z,64.33
2023-04-02T11:26:04.919Z,64.56
2023-04-02T11:27:04.916Z,64.66
2023-04-02T11:28:04.907Z,64.58
2023-04-02T11:29:04.894Z,64.92
2023-04-02T11:30:04.886Z,65.32
2023-04-02T11:31:04.851Z,65.62
2023-04-02T11:32:04.852Z,65.89
2023-04-02T11:33:04.875Z,66.22
2023-04-02T11:34:04.835Z,66.38
2023-04-02T11:35:06.996Z,66.33
2023-04-02T11:36:04.817Z,66.25
2023-04-02T11:37:04.785Z,64.95
2023-04-02T11:38:04.773Z,64.32
2023-04-02T11:39:16.503Z,64.37
2023-04-02T11:40:04.765Z,64.70
2023-04-02T11:41:04.738Z,64.95
2023-04-02T11:42:04.726Z,65.20
2023-04-02T11:43:04.701Z,65.33
2023-04-02T11:44:04.700Z,65.59
2023-04-02T11:45:04.691Z,65.56
2023-04-02T11:46:04.687Z,65.52
2023-04-02T11:47:04.654Z,65.34
2023-04-02T11:48:04.683Z,64.90
2023-04-02T11:49:04.633Z,64.82
2023-04-02T11:50:04.652Z,64.76
2023-04-02T11:51:04.627Z,64.59
2023-04-02T11:52:11.951Z,64.34
2023-04-02T11:53:04.592Z,64.66
2023-04-02T11:54:04.584Z,64.91
2023-04-02T11:55:04.570Z,65.41
2023-04-02T11:56:04.573Z,65.55
2023-04-02T11:57:04.575Z,65.80
2023-04-02T11:58:04.550Z,66.15
2023-04-02T11:59:04.518Z,66.29
2023-04-02T12:00:04.518Z,66.53
2023-04-02T12:01:04.492Z,66.55
2023-04-02T12:02:04.507Z,66.73
2023-04-02T12:03:04.543Z,66.81
2023-04-02T12:04:04.474Z,66.97
2023-04-02T12:05:04.626Z,67.12
2023-04-02T12:06:04.534Z,67.08
2023-04-02T12:07:04.417Z,67.22
2023-04-02T12:08:04.403Z,67.19
2023-04-02T12:09:04.414Z,67.21
2023-04-02T12:10:04.394Z,67.29
2023-04-02T12:11:04.366Z,67.32
2023-04-02T12:12:04.372Z,67.17
2023-04-02T12:13:04.342Z,67.23
2023-04-02T12:14:04.326Z,67.15
2023-04-02T12:15:04.332Z,67.23
2023-04-02T12:16:04.319Z,67.35
2023-04-02T12:17:05.380Z,67.29
2023-04-02T12:18:04.326Z,67.33
2023-04-02T12:19:04.279Z,67.46
2023-04-02T12:20:05.760Z,67.45
2023-04-02T12:21:04.240Z,67.41
2023-04-02T12:22:04.219Z,67.65
2023-04-02T12:23:04.210Z,67.45
2023-04-02T12:24:04.213Z,67.19
2023-04-02T12:25:04.198Z,66.95
2023-04-02T12:26:04.199Z,66.76
2023-04-02T12:27:04.181Z,66.76
2023-04-02T12:28:04.149Z,66.77
2023-04-02T12:29:04.190Z,66.98
2023-04-02T12:30:04.135Z,66.87
2023-04-02T12:31:04.216Z,66.71
2023-04-02T12:32:04.141Z,65.79
2023-04-02T12:33:04.126Z,65.35
2023-04-02T12:34:04.077Z,65.51
2023-04-02T12:35:04.072Z,65.79
2023-04-02T12:36:04.099Z,65.72
2023-04-02T12:37:04.059Z,65.51
2023-04-02T12:38:04.028Z,65.23
2023-04-02T12:39:04.018Z,65.19
2023-04-02T12:40:04.035Z,65.23
2023-04-02T12:41:03.996Z,65.53
2023-04-02T12:42:04.008Z,65.39
2023-04-02T12:43:03.980Z,65.27
2023-04-02T12:44:03.969Z,65.09
2023-04-02T12:45:03.932Z,65.35
2023-04-02T12:46:03.976Z,65.18
2023-04-02T12:47:03.930Z,65.10
2023-04-02T12:48:03.926Z,65.34
2023-04-02T12:49:03.906Z,65.40
2023-04-02T12:50:03.889Z,65.71
2023-04-02T12:51:03.907Z,65.68
2023-04-02T12:52:03.886Z,65.89